Overview Statistics Trail Chart Weather Telemetry Raw packets
 

This is the latest recevied weather packets stored in our database for station/object K0QED. If no packets are shown the sender has not sent any weather packets the latest 10 day(s).

<< 83 84 85 86 87 88 89 >>
Time Temp. Humidity Pressure Rain* Wind** Luminosity Snow
1788015134 22.22° C 45% 1027.1 hPa 0 mm - 162 W/m² -
1788014832 22.22° C 44% 1027.1 hPa 0 mm - 158 W/m² -
1788014531 21.67° C 46% 1027.1 hPa 0 mm - 149 W/m² -
1788014226 21.67° C 45% 1027.4 hPa 0 mm - 131 W/m² -
1788013921 21.67° C 46% 1027.2 hPa 0 mm - 115 W/m² -
1788013615 21.11° C 47% 1027.1 hPa 0 mm - 111 W/m² -
1788013310 21.11° C 47% 1027.1 hPa 0 mm - 107 W/m² -
1788013010 21.11° C 46% 1027.2 hPa 0 mm - 98 W/m² -
1788012703 21.11° C 46% 1027.2 hPa 0 mm - 93 W/m² -
1788012399 20.56° C 46% 1027.4 hPa 0 mm - 92 W/m² -
1788012093 20.56° C 46% 1027.4 hPa 0 mm - 90 W/m² -
1788011793 20.56° C 46% 1027.5 hPa 0 mm - 91 W/m² -
1788011486 20.56° C 46% 1027.2 hPa 0 mm - 83 W/m² -
1788011182 20° C 46% 1027.4 hPa 0 mm - 82 W/m² -
1788010876 20° C 47% 1027.4 hPa 0 mm - 82 W/m² -
1788010575 20° C 48% 1027.1 hPa 0 mm - 77 W/m² -
1788010269 19.44° C 48% 1027.2 hPa 0 mm - 67 W/m² -
1788009969 19.44° C 47% 1027.2 hPa 0 mm - 60 W/m² -
1788009668 19.44° C 48% 1027.2 hPa 0 mm - 53 W/m² -
1788009362 19.44° C 48% 1027.2 hPa 0 mm - 47 W/m² -
1788009062 18.33° C 49% 1026.9 hPa 0 mm - 40 W/m² -
1788008757 16.67° C 53% 1026.9 hPa 0 mm - 35 W/m² -
1788008457 16.67° C 56% 1026.9 hPa 0 mm - 26 W/m² -
1788008154 16.11° C 58% 1026.9 hPa 0 mm - 21 W/m² -
1788007853 16.11° C 59% 1027.1 hPa 0 mm - 15 W/m² -

* Rain latest hour (hover to see other rain measurements)
** Current wind speed in m/s (hover to see current wind gust speed)